sensor_id;sensor_type;location;lat;lon;timestamp;pressure;altitude;pressure_sealevel;temperature;humidity
41513;BME280;27244;59.940;30.280;2022-08-18T00:02:02;101707.63;;;26.19;50.22
41513;BME280;27244;59.940;30.280;2022-08-18T00:04:31;101705.69;;;26.12;50.54
41513;BME280;27244;59.940;30.280;2022-08-18T00:07:00;101709.88;;;26.08;50.50
41513;BME280;27244;59.940;30.280;2022-08-18T00:09:27;101704.97;;;26.08;50.65
41513;BME280;27244;59.940;30.280;2022-08-18T00:11:55;101711.91;;;26.07;50.54
41513;BME280;27244;59.940;30.280;2022-08-18T00:14:23;101705.44;;;26.07;50.73
41513;BME280;27244;59.940;30.280;2022-08-18T00:16:52;101711.09;;;26.07;50.46
41513;BME280;27244;59.940;30.280;2022-08-18T00:19:21;101707.03;;;26.08;50.37
41513;BME280;27244;59.940;30.280;2022-08-18T00:21:48;101719.56;;;26.07;50.56
41513;BME280;27244;59.940;30.280;2022-08-18T00:24:15;101716.75;;;26.07;50.75
41513;BME280;27244;59.940;30.280;2022-08-18T00:26:42;101704.63;;;26.06;50.75
41513;BME280;27244;59.940;30.280;2022-08-18T00:29:09;101711.50;;;26.05;50.69
41513;BME280;27244;59.940;30.280;2022-08-18T00:31:36;101713.53;;;26.05;50.86
41513;BME280;27244;59.940;30.280;2022-08-18T00:34:03;101708.69;;;26.05;50.84
41513;BME280;27244;59.940;30.280;2022-08-18T00:36:32;101715.53;;;26.08;50.72
41513;BME280;27244;59.940;30.280;2022-08-18T00:39:00;101707.88;;;26.05;50.84
41513;BME280;27244;59.940;30.280;2022-08-18T00:41:27;101707.88;;;26.05;50.63
41513;BME280;27244;59.940;30.280;2022-08-18T00:43:55;101702.31;;;26.01;50.84
41513;BME280;27244;59.940;30.280;2022-08-18T00:46:24;101707.13;;;26.04;50.57
41513;BME280;27244;59.940;30.280;2022-08-18T00:48:52;101701.09;;;26.02;50.58
41513;BME280;27244;59.940;30.280;2022-08-18T00:51:23;101701.72;;;26.10;50.57
41513;BME280;27244;59.940;30.280;2022-08-18T00:53:58;101697.28;;;26.09;50.36
41513;BME280;27244;59.940;30.280;2022-08-18T00:56:29;101696.94;;;26.07;50.64
41513;BME280;27244;59.940;30.280;2022-08-18T00:59:01;101698.19;;;26.06;50.92
41513;BME280;27244;59.940;30.280;2022-08-18T01:01:31;101697.38;;;26.05;50.70
41513;BME280;27244;59.940;30.280;2022-08-18T01:04:02;101698.19;;;26.06;50.41
41513;BME280;27244;59.940;30.280;2022-08-18T01:06:35;101694.94;;;26.07;50.67
41513;BME280;27244;59.940;30.280;2022-08-18T01:09:05;101693.41;;;26.03;50.79
41513;BME280;27244;59.940;30.280;2022-08-18T01:11:33;101692.59;;;26.02;50.58
41513;BME280;27244;59.940;30.280;2022-08-18T01:14:03;101690.22;;;26.01;50.80
41513;BME280;27244;59.940;30.280;2022-08-18T01:16:31;101695.44;;;26.02;50.70
41513;BME280;27244;59.940;30.280;2022-08-18T01:19:16;101706.31;;;26.04;50.42
41513;BME280;27244;59.940;30.280;2022-08-18T01:22:07;101706.25;;;26.07;50.56
41513;BME280;27244;59.940;30.280;2022-08-18T01:24:39;101707.13;;;26.04;50.74
41513;BME280;27244;59.940;30.280;2022-08-18T01:27:24;101711.16;;;26.03;50.75
41513;BME280;27244;59.940;30.280;2022-08-18T01:29:54;101697.13;;;26.00;50.64
41513;BME280;27244;59.940;30.280;2022-08-18T01:32:22;101701.16;;;25.99;50.84
41513;BME280;27244;59.940;30.280;2022-08-18T01:34:50;101705.94;;;26.02;50.82
41513;BME280;27244;59.940;30.280;2022-08-18T01:37:20;101706.75;;;26.02;50.70
41513;BME280;27244;59.940;30.280;2022-08-18T01:39:49;101705.50;;;26.03;50.68
41513;BME280;27244;59.940;30.280;2022-08-18T01:42:17;101708.78;;;26.02;50.91
41513;BME280;27244;59.940;30.280;2022-08-18T01:44:45;101707.19;;;26.01;50.90
41513;BME280;27244;59.940;30.280;2022-08-18T01:47:13;101704.00;;;25.99;50.71
41513;BME280;27244;59.940;30.280;2022-08-18T01:49:41;101710.03;;;26.01;50.53
41513;BME280;27244;59.940;30.280;2022-08-18T01:52:09;101705.59;;;26.00;50.78
41513;BME280;27244;59.940;30.280;2022-08-18T01:54:36;101703.66;;;25.97;50.70
41513;BME280;27244;59.940;30.280;2022-08-18T01:57:06;101711.25;;;26.00;50.54
41513;BME280;27244;59.940;30.280;2022-08-18T01:59:39;101707.28;;;25.97;50.74
41513;BME280;27244;59.940;30.280;2022-08-18T02:02:07;101706.09;;;25.94;50.90
41513;BME280;27244;59.940;30.280;2022-08-18T02:04:35;101709.66;;;25.99;50.84
41513;BME280;27244;59.940;30.280;2022-08-18T02:07:05;101710.44;;;25.99;50.59
41513;BME280;27244;59.940;30.280;2022-08-18T02:09:33;101716.53;;;25.98;50.49
41513;BME280;27244;59.940;30.280;2022-08-18T02:12:01;101706.47;;;25.97;50.61
41513;BME280;27244;59.940;30.280;2022-08-18T02:14:29;101714.88;;;26.00;50.64
41513;BME280;27244;59.940;30.280;2022-08-18T02:16:57;101708.50;;;25.96;50.86
41513;BME280;27244;59.940;30.280;2022-08-18T02:19:24;101711.69;;;25.98;50.72
41513;BME280;27244;59.940;30.280;2022-08-18T02:21:51;101710.88;;;25.98;50.80
41513;BME280;27244;59.940;30.280;2022-08-18T02:24:18;101714.16;;;25.96;50.73
41513;BME280;27244;59.940;30.280;2022-08-18T02:26:45;101724.25;;;25.97;50.97
41513;BME280;27244;59.940;30.280;2022-08-18T02:29:12;101718.59;;;25.97;50.55
41513;BME280;27244;59.940;30.280;2022-08-18T02:31:41;101708.94;;;25.94;50.56
41513;BME280;27244;59.940;30.280;2022-08-18T02:34:08;101714.56;;;25.94;50.70
41513;BME280;27244;59.940;30.280;2022-08-18T02:36:35;101716.97;;;25.96;50.77
41513;BME280;27244;59.940;30.280;2022-08-18T02:39:03;101718.59;;;25.97;50.47
41513;BME280;27244;59.940;30.280;2022-08-18T02:41:30;101729.09;;;25.97;50.79
41513;BME280;27244;59.940;30.280;2022-08-18T02:43:57;101725.81;;;25.98;50.58
41513;BME280;27244;59.940;30.280;2022-08-18T02:46:25;101724.25;;;25.97;50.94
41513;BME280;27244;59.940;30.280;2022-08-18T02:48:53;101721.75;;;25.99;50.85
41513;BME280;27244;59.940;30.280;2022-08-18T02:51:21;101718.59;;;25.97;50.87
41513;BME280;27244;59.940;30.280;2022-08-18T02:53:48;101723.44;;;25.97;50.69
41513;BME280;27244;59.940;30.280;2022-08-18T02:56:18;101712.28;;;25.89;50.91
41513;BME280;27244;59.940;30.280;2022-08-18T02:58:50;101724.66;;;25.95;50.93
41513;BME280;27244;59.940;30.280;2022-08-18T03:01:19;101719.00;;;25.95;50.48
41513;BME280;27244;59.940;30.280;2022-08-18T03:03:46;101721.13;;;25.91;50.51
41513;BME280;27244;59.940;30.280;2022-08-18T03:06:15;101723.44;;;25.97;50.46
41513;BME280;27244;59.940;30.280;2022-08-18T03:08:43;101734.38;;;25.94;50.58
41513;BME280;27244;59.940;30.280;2022-08-18T03:11:13;101725.88;;;25.94;50.54
41513;BME280;27244;59.940;30.280;2022-08-18T03:13:41;101731.53;;;25.94;50.45
41513;BME280;27244;59.940;30.280;2022-08-18T03:16:08;101737.19;;;25.94;50.41
41513;BME280;27244;59.940;30.280;2022-08-18T03:18:35;101742.06;;;25.94;50.71
41513;BME280;27244;59.940;30.280;2022-08-18T03:21:05;101748.50;;;25.94;50.50
41513;BME280;27244;59.940;30.280;2022-08-18T03:23:33;101746.13;;;25.93;50.61
41513;BME280;27244;59.940;30.280;2022-08-18T03:26:01;101750.19;;;25.92;50.36
41513;BME280;27244;59.940;30.280;2022-08-18T03:28:28;101744.94;;;25.90;50.58
41513;BME280;27244;59.940;30.280;2022-08-18T03:30:55;101750.59;;;25.90;50.75
41513;BME280;27244;59.940;30.280;2022-08-18T03:33:22;101745.75;;;25.91;50.26
41513;BME280;27244;59.940;30.280;2022-08-18T03:35:49;101759.88;;;25.91;50.56
41513;BME280;27244;59.940;30.280;2022-08-18T03:38:16;101753.00;;;25.92;50.71
41513;BME280;27244;59.940;30.280;2022-08-18T03:40:51;101757.72;;;25.99;50.23
41513;BME280;27244;59.940;30.280;2022-08-18T03:43:18;101753.44;;;25.90;50.51
41513;BME280;27244;59.940;30.280;2022-08-18T03:45:45;101756.25;;;25.90;50.28
41513;BME280;27244;59.940;30.280;2022-08-18T03:48:12;101753.44;;;25.90;50.28
41513;BME280;27244;59.940;30.280;2022-08-18T03:50:39;101747.78;;;25.90;50.24
41513;BME280;27244;59.940;30.280;2022-08-18T03:53:06;101752.28;;;25.88;50.72
41513;BME280;27244;59.940;30.280;2022-08-18T03:55:33;101747.09;;;25.86;50.45
41513;BME280;27244;59.940;30.280;2022-08-18T03:58:02;101750.59;;;25.90;50.71
41513;BME280;27244;59.940;30.280;2022-08-18T04:00:29;101745.03;;;25.87;50.73
41513;BME280;27244;59.940;30.280;2022-08-18T04:03:00;101747.84;;;25.87;50.50
41513;BME280;27244;59.940;30.280;2022-08-18T04:05:28;101748.31;;;25.85;50.47
41513;BME280;27244;59.940;30.280;2022-08-18T04:07:55;101754.75;;;25.86;50.82
41513;BME280;27244;59.940;30.280;2022-08-18T04:10:23;101751.94;;;25.86;50.43
41513;BME280;27244;59.940;30.280;2022-08-18T04:12:50;101745.47;;;25.85;50.81
41513;BME280;27244;59.940;30.280;2022-08-18T04:15:18;101754.31;;;25.87;50.56
41513;BME280;27244;59.940;30.280;2022-08-18T04:17:45;101753.16;;;25.85;50.98
41513;BME280;27244;59.940;30.280;2022-08-18T04:20:15;101753.97;;;25.85;50.93
41513;BME280;27244;59.940;30.280;2022-08-18T04:22:42;101749.97;;;25.83;50.70
41513;BME280;27244;59.940;30.280;2022-08-18T04:25:11;101756.00;;;25.85;50.83
41513;BME280;27244;59.940;30.280;2022-08-18T04:27:38;101756.78;;;25.85;50.67
41513;BME280;27244;59.940;30.280;2022-08-18T04:30:08;101759.63;;;25.85;50.74
41513;BME280;27244;59.940;30.280;2022-08-18T04:32:37;101763.25;;;25.86;50.42
41513;BME280;27244;59.940;30.280;2022-08-18T04:35:05;101764.88;;;25.83;50.48
41513;BME280;27244;59.940;30.280;2022-08-18T04:37:32;101769.31;;;25.84;50.31
41513;BME280;27244;59.940;30.280;2022-08-18T04:39:59;101764.09;;;25.83;50.17
41513;BME280;27244;59.940;30.280;2022-08-18T04:42:26;101767.72;;;25.83;50.38
41513;BME280;27244;59.940;30.280;2022-08-18T04:44:54;101767.38;;;25.81;50.52
41513;BME280;27244;59.940;30.280;2022-08-18T04:47:21;101764.88;;;25.83;50.62
41513;BME280;27244;59.940;30.280;2022-08-18T04:49:49;101769.75;;;25.83;50.33
41513;BME280;27244;59.940;30.280;2022-08-18T04:52:16;101768.97;;;25.82;50.35
41513;BME280;27244;59.940;30.280;2022-08-18T04:55:01;101768.97;;;25.82;50.43
41513;BME280;27244;59.940;30.280;2022-08-18T04:57:28;101763.75;;;25.81;50.32
41513;BME280;27244;59.940;30.280;2022-08-18T04:59:56;101759.31;;;25.80;50.20
41513;BME280;27244;59.940;30.280;2022-08-18T05:02:23;101763.66;;;25.84;50.56
41513;BME280;27244;59.940;30.280;2022-08-18T05:04:52;101766.41;;;25.88;50.58
41513;BME280;27244;59.940;30.280;2022-08-18T05:07:20;101765.28;;;25.85;50.37
41513;BME280;27244;59.940;30.280;2022-08-18T05:09:48;101759.22;;;25.83;50.21
41513;BME280;27244;59.940;30.280;2022-08-18T05:12:16;101764.47;;;25.85;50.47
41513;BME280;27244;59.940;30.280;2022-08-18T05:14:44;101761.22;;;25.86;50.47
41513;BME280;27244;59.940;30.280;2022-08-18T05:17:13;101759.63;;;25.85;50.36
41513;BME280;27244;59.940;30.280;2022-08-18T05:19:40;101759.63;;;25.85;50.79
41513;BME280;27244;59.940;30.280;2022-08-18T05:22:10;101765.63;;;25.87;50.54
41513;BME280;27244;59.940;30.280;2022-08-18T05:24:38;101756.06;;;25.81;50.36
41513;BME280;27244;59.940;30.280;2022-08-18T05:27:05;101763.25;;;25.86;50.53
41513;BME280;27244;59.940;30.280;2022-08-18T05:29:33;101767.66;;;25.87;50.75
41513;BME280;27244;59.940;30.280;2022-08-18T05:32:02;101772.88;;;25.88;50.84
41513;BME280;27244;59.940;30.280;2022-08-18T05:34:32;101771.13;;;26.14;50.11
41513;BME280;27244;59.940;30.280;2022-08-18T05:37:14;101777.88;;;26.01;50.45
41513;BME280;27244;59.940;30.280;2022-08-18T05:39:53;101775.19;;;25.93;51.00
41513;BME280;27244;59.940;30.280;2022-08-18T05:42:23;101768.81;;;25.89;51.00
41513;BME280;27244;59.940;30.280;2022-08-18T05:44:54;101766.81;;;25.90;51.21
41513;BME280;27244;59.940;30.280;2022-08-18T05:47:24;101776.84;;;25.91;50.92
41513;BME280;27244;59.940;30.280;2022-08-18T05:49:53;101766.00;;;25.89;50.99
41513;BME280;27244;59.940;30.280;2022-08-18T05:52:31;101774.25;;;26.00;51.35
41513;BME280;27244;59.940;30.280;2022-08-18T05:55:02;101767.94;;;25.92;51.41
41513;BME280;27244;59.940;30.280;2022-08-18T05:57:53;101767.41;;;25.98;51.22
41513;BME280;27244;59.940;30.280;2022-08-18T06:00:23;101770.25;;;25.98;51.52
41513;BME280;27244;59.940;30.280;2022-08-18T06:02:54;101783.88;;;26.03;51.53
41513;BME280;27244;59.940;30.280;2022-08-18T06:05:27;101778.22;;;26.03;51.75
41513;BME280;27244;59.940;30.280;2022-08-18T06:07:59;101773.72;;;26.05;51.35
41513;BME280;27244;59.940;30.280;2022-08-18T06:10:28;101768.59;;;26.00;51.63
41513;BME280;27244;59.940;30.280;2022-08-18T06:12:57;101771.34;;;26.04;51.74
41513;BME280;27244;59.940;30.280;2022-08-18T06:15:32;101778.06;;;26.10;51.76
41513;BME280;27244;59.940;30.280;2022-08-18T06:18:17;101774.38;;;26.13;51.65
41513;BME280;27244;59.940;30.280;2022-08-18T06:21:02;101773.56;;;26.12;51.71
41513;BME280;27244;59.940;30.280;2022-08-18T06:23:41;101773.22;;;26.10;51.79
41513;BME280;27244;59.940;30.280;2022-08-18T06:26:18;101775.66;;;26.08;52.00
41513;BME280;27244;59.940;30.280;2022-08-18T06:28:59;101781.28;;;26.12;51.88
41513;BME280;27244;59.940;30.280;2022-08-18T06:31:33;101777.72;;;26.08;51.74
41513;BME280;27244;59.940;30.280;2022-08-18T06:34:13;101779.31;;;26.09;51.76
41513;BME280;27244;59.940;30.280;2022-08-18T06:36:49;101780.56;;;26.08;52.07
41513;BME280;27244;59.940;30.280;2022-08-18T06:39:25;101770.63;;;26.00;52.22
41513;BME280;27244;59.940;30.280;2022-08-18T06:41:55;101778.38;;;25.95;52.14
41513;BME280;27244;59.940;30.280;2022-08-18T06:44:27;101783.53;;;26.01;52.11
41513;BME280;27244;59.940;30.280;2022-08-18T06:47:00;101778.22;;;26.03;51.92
41513;BME280;27244;59.940;30.280;2022-08-18T06:49:37;101775.75;;;26.05;51.99
41513;BME280;27244;59.940;30.280;2022-08-18T06:52:25;101781.28;;;26.12;51.57
41513;BME280;27244;59.940;30.280;2022-08-18T06:54:57;101775.41;;;26.03;51.98
41513;BME280;27244;59.940;30.280;2022-08-18T06:57:29;101773.38;;;26.03;51.72
41513;BME280;27244;59.940;30.280;2022-08-18T06:59:59;101778.66;;;26.01;52.14
41513;BME280;27244;59.940;30.280;2022-08-18T07:02:44;101788.97;;;26.11;51.54
41513;BME280;27244;59.940;30.280;2022-08-18T07:05:20;101773.00;;;26.01;51.99
41513;BME280;27244;59.940;30.280;2022-08-18T07:08:07;101779.38;;;26.05;52.10
41513;BME280;27244;59.940;30.280;2022-08-18T07:10:39;101787.22;;;25.98;52.20
41513;BME280;27244;59.940;30.280;2022-08-18T07:13:18;101782.28;;;26.02;52.20
41513;BME280;27244;59.940;30.280;2022-08-18T07:15:45;101788.53;;;25.93;53.26
41513;BME280;27244;59.940;30.280;2022-08-18T07:18:14;101785.78;;;25.89;52.72
41513;BME280;27244;59.940;30.280;2022-08-18T07:20:44;101787.75;;;25.92;52.96
41513;BME280;27244;59.940;30.280;2022-08-18T07:23:24;101796.78;;;26.04;52.87
41513;BME280;27244;59.940;30.280;2022-08-18T07:26:02;101793.97;;;26.04;53.02
41513;BME280;27244;59.940;30.280;2022-08-18T07:28:31;101795.69;;;25.98;53.97
41513;BME280;27244;59.940;30.280;2022-08-18T07:31:25;101800.28;;;26.11;53.18
41513;BME280;27244;59.940;30.280;2022-08-18T07:34:02;101799.25;;;26.02;53.74
41513;BME280;27244;59.940;30.280;2022-08-18T07:36:33;101798.91;;;26.00;52.95
41513;BME280;27244;59.940;30.280;2022-08-18T07:39:10;101806.50;;;26.03;53.48
41513;BME280;27244;59.940;30.280;2022-08-18T07:41:46;101807.31;;;26.03;53.50
41513;BME280;27244;59.940;30.280;2022-08-18T07:44:20;101813.75;;;26.04;53.82
41513;BME280;27244;59.940;30.280;2022-08-18T07:46:54;101801.72;;;26.00;53.70
41513;BME280;27244;59.940;30.280;2022-08-18T07:49:27;101806.84;;;26.05;53.75
41513;BME280;27244;59.940;30.280;2022-08-18T07:51:58;101813.31;;;26.05;53.51
41513;BME280;27244;59.940;30.280;2022-08-18T07:54:40;101813.16;;;26.12;53.29
41513;BME280;27244;59.940;30.280;2022-08-18T07:57:18;101818.47;;;26.10;53.74
41513;BME280;27244;59.940;30.280;2022-08-18T07:59:53;101816.78;;;26.13;53.65
41513;BME280;27244;59.940;30.280;2022-08-18T08:02:31;101814.41;;;26.11;55.32
41513;BME280;27244;59.940;30.280;2022-08-18T08:05:09;101814.84;;;26.10;55.52
41513;BME280;27244;59.940;30.280;2022-08-18T08:07:44;101814.84;;;26.10;55.39
41513;BME280;27244;59.940;30.280;2022-08-18T08:10:31;101820.78;;;26.15;55.12
41513;BME280;27244;59.940;30.280;2022-08-18T08:13:11;101809.03;;;26.17;55.22
41513;BME280;27244;59.940;30.280;2022-08-18T08:15:50;101822.81;;;26.15;54.82
41513;BME280;27244;59.940;30.280;2022-08-18T08:18:26;101813.97;;;26.13;54.99
41513;BME280;27244;59.940;30.280;2022-08-18T08:20:58;101811.59;;;26.11;54.85
41513;BME280;27244;59.940;30.280;2022-08-18T08:23:32;101816.44;;;26.11;54.86
41513;BME280;27244;59.940;30.280;2022-08-18T08:26:17;101816.31;;;26.18;54.59
41513;BME280;27244;59.940;30.280;2022-08-18T08:29:00;101807.09;;;26.14;54.55
41513;BME280;27244;59.940;30.280;2022-08-18T08:31:35;101813.53;;;26.14;54.48
41513;BME280;27244;59.940;30.280;2022-08-18T08:34:12;101801.94;;;26.09;54.91
41513;BME280;27244;59.940;30.280;2022-08-18T08:36:45;101810.78;;;26.11;54.72
41513;BME280;27244;59.940;30.280;2022-08-18T08:39:18;101810.72;;;26.14;54.65
41513;BME280;27244;59.940;30.280;2022-08-18T08:41:50;101814.34;;;26.15;54.75
41513;BME280;27244;59.940;30.280;2022-08-18T08:44:25;101814.34;;;26.15;54.90
41513;BME280;27244;59.940;30.280;2022-08-18T08:46:59;101820.88;;;26.12;54.58
41513;BME280;27244;59.940;30.280;2022-08-18T08:49:34;101821.22;;;26.14;54.46
41513;BME280;27244;59.940;30.280;2022-08-18T08:52:08;101822.44;;;26.13;54.37
41513;BME280;27244;59.940;30.280;2022-08-18T08:54:42;101821.22;;;26.14;54.72
41513;BME280;27244;59.940;30.280;2022-08-18T08:57:12;101814.50;;;26.08;54.81
41513;BME280;27244;59.940;30.280;2022-08-18T08:59:41;101812.81;;;26.10;54.73
41513;BME280;27244;59.940;30.280;2022-08-18T09:02:26;101811.00;;;26.20;54.42
41513;BME280;27244;59.940;30.280;2022-08-18T09:05:05;101815.88;;;26.19;54.68
41513;BME280;27244;59.940;30.280;2022-08-18T09:07:47;101815.50;;;26.17;54.88
41513;BME280;27244;59.940;30.280;2022-08-18T09:10:35;101811.84;;;26.17;54.85
41513;BME280;27244;59.940;30.280;2022-08-18T09:16:19;101817.50;;;26.17;55.14
41513;BME280;27244;59.940;30.280;2022-08-18T09:19:15;101815.03;;;26.22;54.59
41513;BME280;27244;59.940;30.280;2022-08-18T09:21:54;101821.56;;;26.16;55.00
41513;BME280;27244;59.940;30.280;2022-08-18T09:24:27;101816.44;;;26.11;55.05
41513;BME280;27244;59.940;30.280;2022-08-18T09:27:12;101812.63;;;26.21;54.59
41513;BME280;27244;59.940;30.280;2022-08-18T09:29:50;101819.16;;;26.18;55.14
41513;BME280;27244;59.940;30.280;2022-08-18T09:32:48;101817.03;;;26.22;54.54
41513;BME280;27244;59.940;30.280;2022-08-18T09:35:37;101811.38;;;26.22;54.82
41513;BME280;27244;59.940;30.280;2022-08-18T09:38:12;101809.91;;;26.14;55.06
41513;BME280;27244;59.940;30.280;2022-08-18T09:41:04;101801.44;;;26.14;54.61
41513;BME280;27244;59.940;30.280;2022-08-18T09:43:55;101807.88;;;26.14;54.81
41513;BME280;27244;59.940;30.280;2022-08-18T09:47:04;101813.34;;;26.25;54.80
41513;BME280;27244;59.940;30.280;2022-08-18T09:49:45;101802.66;;;26.13;54.90
41513;BME280;27244;59.940;30.280;2022-08-18T09:52:46;101808.03;;;26.27;54.71
41513;BME280;27244;59.940;30.280;2022-08-18T09:55:36;101815.78;;;26.23;54.92
41513;BME280;27244;59.940;30.280;2022-08-18T09:58:17;101808.19;;;26.20;54.83
41513;BME280;27244;59.940;30.280;2022-08-18T10:00:45;101819.28;;;26.11;55.50
41513;BME280;27244;59.940;30.280;2022-08-18T10:03:32;101813.16;;;26.12;55.57
41513;BME280;27244;59.940;30.280;2022-08-18T10:06:17;101802.53;;;26.20;54.90
41513;BME280;27244;59.940;30.280;2022-08-18T10:09:02;101819.00;;;26.25;54.77
41513;BME280;27244;59.940;30.280;2022-08-18T10:11:42;101812.63;;;26.21;54.86
41513;BME280;27244;59.940;30.280;2022-08-18T10:14:25;101819.88;;;26.22;54.69
41513;BME280;27244;59.940;30.280;2022-08-18T10:16:59;101819.19;;;26.14;55.01
41513;BME280;27244;59.940;30.280;2022-08-18T10:19:34;101819.19;;;26.14;55.08
41513;BME280;27244;59.940;30.280;2022-08-18T10:22:09;101813.97;;;26.13;54.95
41513;BME280;27244;59.940;30.280;2022-08-18T10:24:52;101809.78;;;26.21;54.99
41513;BME280;27244;59.940;30.280;2022-08-18T10:27:51;101823.50;;;26.22;54.81
41513;BME280;27244;59.940;30.280;2022-08-18T10:34:01;101809.28;;;26.26;54.79
41513;BME280;27244;59.940;30.280;2022-08-18T10:36:38;101821.16;;;26.17;55.08
41513;BME280;27244;59.940;30.280;2022-08-18T10:39:10;101816.72;;;26.16;55.07
41513;BME280;27244;59.940;30.280;2022-08-18T10:41:56;101815.50;;;26.17;55.13
41513;BME280;27244;59.940;30.280;2022-08-18T10:44:25;101815.63;;;26.10;55.22
41513;BME280;27244;59.940;30.280;2022-08-18T10:46:53;101816.06;;;26.09;55.25
41513;BME280;27244;59.940;30.280;2022-08-18T10:49:24;101818.81;;;26.12;55.11
41513;BME280;27244;59.940;30.280;2022-08-18T10:52:07;101810.72;;;26.14;55.38
41513;BME280;27244;59.940;30.280;2022-08-18T10:54:55;101822.31;;;26.20;55.00
41513;BME280;27244;59.940;30.280;2022-08-18T10:57:30;101816.72;;;26.16;54.86
41513;BME280;27244;59.940;30.280;2022-08-18T11:00:04;101824.81;;;26.18;55.26
41513;BME280;27244;59.940;30.280;2022-08-18T11:02:52;101821.97;;;26.18;55.25
41513;BME280;27244;59.940;30.280;2022-08-18T11:05:27;101820.06;;;26.11;55.64
41513;BME280;27244;59.940;30.280;2022-08-18T11:07:59;101823.97;;;26.17;55.12
41513;BME280;27244;59.940;30.280;2022-08-18T11:10:38;101829.59;;;26.21;55.32
41513;BME280;27244;59.940;30.280;2022-08-18T11:13:12;101827.63;;;26.18;55.30
41513;BME280;27244;59.940;30.280;2022-08-18T11:15:50;101825.16;;;26.20;55.36
41513;BME280;27244;59.940;30.280;2022-08-18T11:18:32;101826.69;;;26.24;55.27
41513;BME280;27244;59.940;30.280;2022-08-18T11:21:23;101827.75;;;26.30;55.57
41513;BME280;27244;59.940;30.280;2022-08-18T11:24:06;101826.59;;;26.28;56.56
41513;BME280;27244;59.940;30.280;2022-08-18T11:26:40;101823.84;;;26.24;57.06
41513;BME280;27244;59.940;30.280;2022-08-18T11:29:25;101826.94;;;26.30;56.44
41513;BME280;27244;59.940;30.280;2022-08-18T11:31:57;101833.94;;;26.25;56.51
41513;BME280;27244;59.940;30.280;2022-08-18T11:34:29;101831.91;;;26.26;56.69
41513;BME280;27244;59.940;30.280;2022-08-18T11:37:00;101834.38;;;26.24;56.27
41513;BME280;27244;59.940;30.280;2022-08-18T11:39:42;101827.34;;;26.32;56.09
41513;BME280;27244;59.940;30.280;2022-08-18T11:42:16;101827.84;;;26.27;56.31
41513;BME280;27244;59.940;30.280;2022-08-18T11:44:44;101823.50;;;26.22;56.32
41513;BME280;27244;59.940;30.280;2022-08-18T11:47:16;101831.91;;;26.26;56.04
41513;BME280;27244;59.940;30.280;2022-08-18T11:49:56;101837.75;;;26.35;55.73
41513;BME280;27244;59.940;30.280;2022-08-18T11:52:25;101832.69;;;26.26;56.19
41513;BME280;27244;59.940;30.280;2022-08-18T11:54:58;101834.66;;;26.29;56.04
41513;BME280;27244;59.940;30.280;2022-08-18T11:57:39;101833.00;;;26.32;55.74
41513;BME280;27244;59.940;30.280;2022-08-18T12:03:24;101833.41;;;26.30;55.57
41513;BME280;27244;59.940;30.280;2022-08-18T12:05:55;101844.81;;;26.27;55.45
41513;BME280;27244;59.940;30.280;2022-08-18T12:08:31;101831.84;;;26.29;55.00
41513;BME280;27244;59.940;30.280;2022-08-18T12:11:06;101837.56;;;26.26;54.48
41513;BME280;27244;59.940;30.280;2022-08-18T12:13:44;101838.34;;;26.26;54.48
41513;BME280;27244;59.940;30.280;2022-08-18T12:16:14;101840.09;;;26.20;54.59
41513;BME280;27244;59.940;30.280;2022-08-18T12:18:41;101844.06;;;26.23;54.32
41513;BME280;27244;59.940;30.280;2022-08-18T12:21:09;101851.34;;;26.24;54.45
41513;BME280;27244;59.940;30.280;2022-08-18T12:23:40;101840.75;;;26.28;55.27
41513;BME280;27244;59.940;30.280;2022-08-18T12:26:10;101833.13;;;26.25;54.74
41513;BME280;27244;59.940;30.280;2022-08-18T12:28:38;101831.91;;;26.26;54.51
41513;BME280;27244;59.940;30.280;2022-08-18T12:31:07;101835.09;;;26.28;54.86
41513;BME280;27244;59.940;30.280;2022-08-18T12:33:34;101840.41;;;26.26;54.96
41513;BME280;27244;59.940;30.280;2022-08-18T12:36:02;101836.78;;;26.25;55.22
41513;BME280;27244;59.940;30.280;2022-08-18T12:38:32;101837.91;;;26.28;55.02
41513;BME280;27244;59.940;30.280;2022-08-18T12:41:05;101832.41;;;26.21;54.71
41513;BME280;27244;59.940;30.280;2022-08-18T12:43:37;101838.34;;;26.26;55.08
41513;BME280;27244;59.940;30.280;2022-08-18T12:46:06;101830.31;;;26.25;54.93
41513;BME280;27244;59.940;30.280;2022-08-18T12:48:33;101832.75;;;26.23;54.92
41513;BME280;27244;59.940;30.280;2022-08-18T12:51:02;101837.56;;;26.26;54.84
41513;BME280;27244;59.940;30.280;2022-08-18T12:53:29;101827.03;;;26.26;54.61
41513;BME280;27244;59.940;30.280;2022-08-18T12:55:56;101822.97;;;26.27;54.40
41513;BME280;27244;59.940;30.280;2022-08-18T12:58:24;101823.44;;;26.26;54.64
41513;BME280;27244;59.940;30.280;2022-08-18T13:00:51;101829.44;;;26.28;54.43
41513;BME280;27244;59.940;30.280;2022-08-18T13:03:21;101829.44;;;26.28;54.67
41513;BME280;27244;59.940;30.280;2022-08-18T13:05:48;101826.69;;;26.24;54.65
41513;BME280;27244;59.940;30.280;2022-08-18T13:08:19;101833.88;;;26.29;54.30
41513;BME280;27244;59.940;30.280;2022-08-18T13:10:47;101825.47;;;26.25;54.38
41513;BME280;27244;59.940;30.280;2022-08-18T13:13:16;101832.25;;;26.28;54.28
41513;BME280;27244;59.940;30.280;2022-08-18T13:15:43;101824.56;;;26.28;54.26
41513;BME280;27244;59.940;30.280;2022-08-18T13:18:11;101822.97;;;26.27;54.50
41513;BME280;27244;59.940;30.280;2022-08-18T13:20:40;101831.38;;;26.31;54.28